sensor_id;sensor_type;location;lat;lon;timestamp;P1;durP1;ratioP1;P2;durP2;ratioP2
53503;SDS011;39387;50.998;22.340;2023-03-20T00:00:15;36.85;;;16.60;;
53503;SDS011;39387;50.998;22.340;2023-03-20T00:03:14;41.70;;;19.00;;
53503;SDS011;39387;50.998;22.340;2023-03-20T00:05:42;38.75;;;17.50;;
53503;SDS011;39387;50.998;22.340;2023-03-20T00:08:10;39.50;;;18.08;;
53503;SDS011;39387;50.998;22.340;2023-03-20T00:10:39;41.38;;;18.75;;
53503;SDS011;39387;50.998;22.340;2023-03-20T00:13:10;47.88;;;19.23;;
53503;SDS011;39387;50.998;22.340;2023-03-20T00:15:40;42.90;;;18.50;;
53503;SDS011;39387;50.998;22.340;2023-03-20T00:18:10;42.67;;;18.95;;
53503;SDS011;39387;50.998;22.340;2023-03-20T00:20:40;47.53;;;21.38;;
53503;SDS011;39387;50.998;22.340;2023-03-20T00:23:07;37.53;;;17.17;;
53503;SDS011;39387;50.998;22.340;2023-03-20T00:25:36;47.97;;;20.83;;
53503;SDS011;39387;50.998;22.340;2023-03-20T00:28:09;52.00;;;22.52;;
53503;SDS011;39387;50.998;22.340;2023-03-20T00:33:22;48.75;;;20.08;;
53503;SDS011;39387;50.998;22.340;2023-03-20T00:35:51;47.88;;;20.55;;
53503;SDS011;39387;50.998;22.340;2023-03-20T00:38:19;48.83;;;21.63;;
53503;SDS011;39387;50.998;22.340;2023-03-20T00:40:47;48.88;;;21.67;;
53503;SDS011;39387;50.998;22.340;2023-03-20T00:43:14;44.17;;;20.23;;
53503;SDS011;39387;50.998;22.340;2023-03-20T00:45:42;46.53;;;21.60;;
53503;SDS011;39387;50.998;22.340;2023-03-20T00:48:12;48.00;;;21.40;;
53503;SDS011;39387;50.998;22.340;2023-03-20T00:50:40;48.00;;;20.33;;
53503;SDS011;39387;50.998;22.340;2023-03-20T00:53:08;47.97;;;20.48;;
53503;SDS011;39387;50.998;22.340;2023-03-20T00:55:36;51.80;;;22.45;;
53503;SDS011;39387;50.998;22.340;2023-03-20T00:58:06;46.20;;;20.05;;
53503;SDS011;39387;50.998;22.340;2023-03-20T01:00:36;51.38;;;22.05;;
53503;SDS011;39387;50.998;22.340;2023-03-20T01:03:10;45.88;;;21.77;;
53503;SDS011;39387;50.998;22.340;2023-03-20T01:05:39;45.38;;;20.95;;
53503;SDS011;39387;50.998;22.340;2023-03-20T01:08:13;47.20;;;20.83;;
53503;SDS011;39387;50.998;22.340;2023-03-20T01:10:42;51.88;;;21.45;;
53503;SDS011;39387;50.998;22.340;2023-03-20T01:13:14;49.10;;;22.25;;
53503;SDS011;39387;50.998;22.340;2023-03-20T01:15:45;45.83;;;19.83;;
53503;SDS011;39387;50.998;22.340;2023-03-20T01:18:13;45.28;;;20.17;;
53503;SDS011;39387;50.998;22.340;2023-03-20T01:20:41;47.35;;;21.05;;
53503;SDS011;39387;50.998;22.340;2023-03-20T01:23:10;46.72;;;22.58;;
53503;SDS011;39387;50.998;22.340;2023-03-20T01:25:38;51.83;;;21.50;;
53503;SDS011;39387;50.998;22.340;2023-03-20T01:28:11;45.15;;;20.17;;
53503;SDS011;39387;50.998;22.340;2023-03-20T01:30:43;42.33;;;19.38;;
53503;SDS011;39387;50.998;22.340;2023-03-20T01:33:11;45.00;;;22.08;;
53503;SDS011;39387;50.998;22.340;2023-03-20T01:35:40;43.42;;;20.60;;
53503;SDS011;39387;50.998;22.340;2023-03-20T01:38:11;47.30;;;20.75;;
53503;SDS011;39387;50.998;22.340;2023-03-20T01:40:42;46.25;;;20.27;;
53503;SDS011;39387;50.998;22.340;2023-03-20T01:43:16;52.50;;;22.88;;
53503;SDS011;39387;50.998;22.340;2023-03-20T01:45:48;47.67;;;20.50;;
53503;SDS011;39387;50.998;22.340;2023-03-20T01:48:21;42.72;;;19.90;;
53503;SDS011;39387;50.998;22.340;2023-03-20T01:50:50;42.60;;;18.65;;
53503;SDS011;39387;50.998;22.340;2023-03-20T01:53:17;43.17;;;19.77;;
53503;SDS011;39387;50.998;22.340;2023-03-20T01:55:48;51.08;;;20.42;;
53503;SDS011;39387;50.998;22.340;2023-03-20T01:58:20;49.40;;;20.85;;
53503;SDS011;39387;50.998;22.340;2023-03-20T02:00:50;47.30;;;20.33;;
53503;SDS011;39387;50.998;22.340;2023-03-20T02:03:18;46.70;;;19.35;;
53503;SDS011;39387;50.998;22.340;2023-03-20T02:05:46;44.33;;;18.40;;
53503;SDS011;39387;50.998;22.340;2023-03-20T02:08:19;40.85;;;19.48;;
53503;SDS011;39387;50.998;22.340;2023-03-20T02:10:50;40.22;;;18.80;;
53503;SDS011;39387;50.998;22.340;2023-03-20T02:13:17;40.13;;;17.25;;
53503;SDS011;39387;50.998;22.340;2023-03-20T02:18:32;42.95;;;18.08;;
53503;SDS011;39387;50.998;22.340;2023-03-20T02:24:06;44.70;;;18.75;;
53503;SDS011;39387;50.998;22.340;2023-03-20T02:26:58;40.35;;;18.40;;
53503;SDS011;39387;50.998;22.340;2023-03-20T02:35:52;36.53;;;17.40;;
53503;SDS011;39387;50.998;22.340;2023-03-20T02:38:34;29.27;;;14.77;;
53503;SDS011;39387;50.998;22.340;2023-03-20T02:41:20;38.58;;;17.90;;
53503;SDS011;39387;50.998;22.340;2023-03-20T02:43:52;41.80;;;18.60;;
53503;SDS011;39387;50.998;22.340;2023-03-20T02:46:26;40.75;;;17.92;;
53503;SDS011;39387;50.998;22.340;2023-03-20T02:49:02;37.60;;;16.10;;
53503;SDS011;39387;50.998;22.340;2023-03-20T02:51:34;33.50;;;15.35;;
53503;SDS011;39387;50.998;22.340;2023-03-20T02:54:06;34.92;;;15.73;;
53503;SDS011;39387;50.998;22.340;2023-03-20T02:56:36;34.45;;;16.38;;
53503;SDS011;39387;50.998;22.340;2023-03-20T02:59:11;32.08;;;15.48;;
53503;SDS011;39387;50.998;22.340;2023-03-20T03:01:43;35.53;;;16.88;;
53503;SDS011;39387;50.998;22.340;2023-03-20T03:06:41;31.25;;;14.25;;
53503;SDS011;39387;50.998;22.340;2023-03-20T03:09:13;32.85;;;14.88;;
53503;SDS011;39387;50.998;22.340;2023-03-20T03:14:12;35.45;;;16.52;;
53503;SDS011;39387;50.998;22.340;2023-03-20T03:16:53;35.53;;;16.15;;
53503;SDS011;39387;50.998;22.340;2023-03-20T03:19:21;41.47;;;17.77;;
53503;SDS011;39387;50.998;22.340;2023-03-20T03:21:50;41.20;;;16.38;;
53503;SDS011;39387;50.998;22.340;2023-03-20T03:24:20;33.90;;;16.15;;
53503;SDS011;39387;50.998;22.340;2023-03-20T03:26:54;34.85;;;15.30;;
53503;SDS011;39387;50.998;22.340;2023-03-20T03:29:22;41.38;;;18.10;;
53503;SDS011;39387;50.998;22.340;2023-03-20T03:31:50;38.47;;;16.63;;
53503;SDS011;39387;50.998;22.340;2023-03-20T03:34:19;36.50;;;17.17;;
53503;SDS011;39387;50.998;22.340;2023-03-20T03:36:49;41.50;;;17.77;;
53503;SDS011;39387;50.998;22.340;2023-03-20T03:39:22;44.35;;;20.30;;
53503;SDS011;39387;50.998;22.340;2023-03-20T03:41:52;36.22;;;15.77;;
53503;SDS011;39387;50.998;22.340;2023-03-20T03:44:25;34.67;;;15.20;;
53503;SDS011;39387;50.998;22.340;2023-03-20T03:46:55;31.60;;;15.75;;
53503;SDS011;39387;50.998;22.340;2023-03-20T03:49:25;36.80;;;15.63;;
53503;SDS011;39387;50.998;22.340;2023-03-20T03:51:54;32.33;;;15.35;;
53503;SDS011;39387;50.998;22.340;2023-03-20T03:54:26;34.00;;;15.43;;
53503;SDS011;39387;50.998;22.340;2023-03-20T03:56:56;32.45;;;14.85;;
53503;SDS011;39387;50.998;22.340;2023-03-20T03:59:27;33.75;;;15.68;;
53503;SDS011;39387;50.998;22.340;2023-03-20T04:01:57;31.42;;;15.27;;
53503;SDS011;39387;50.998;22.340;2023-03-20T04:04:26;37.53;;;16.42;;
53503;SDS011;39387;50.998;22.340;2023-03-20T04:06:53;33.45;;;15.82;;
53503;SDS011;39387;50.998;22.340;2023-03-20T04:09:21;29.35;;;15.55;;
53503;SDS011;39387;50.998;22.340;2023-03-20T04:11:50;35.78;;;14.82;;
53503;SDS011;39387;50.998;22.340;2023-03-20T04:14:18;31.30;;;15.18;;
53503;SDS011;39387;50.998;22.340;2023-03-20T04:16:45;28.25;;;14.43;;
53503;SDS011;39387;50.998;22.340;2023-03-20T04:19:13;29.42;;;15.35;;
53503;SDS011;39387;50.998;22.340;2023-03-20T04:21:40;35.00;;;15.55;;
53503;SDS011;39387;50.998;22.340;2023-03-20T04:24:07;27.42;;;14.18;;
53503;SDS011;39387;50.998;22.340;2023-03-20T04:26:35;34.15;;;15.43;;
53503;SDS011;39387;50.998;22.340;2023-03-20T04:29:04;33.95;;;15.02;;
53503;SDS011;39387;50.998;22.340;2023-03-20T04:31:31;30.55;;;14.57;;
53503;SDS011;39387;50.998;22.340;2023-03-20T04:33:58;31.88;;;14.98;;
53503;SDS011;39387;50.998;22.340;2023-03-20T04:36:26;30.23;;;14.38;;
53503;SDS011;39387;50.998;22.340;2023-03-20T04:38:53;31.80;;;14.68;;
53503;SDS011;39387;50.998;22.340;2023-03-20T04:41:20;30.02;;;15.30;;
53503;SDS011;39387;50.998;22.340;2023-03-20T04:43:48;31.45;;;14.10;;
53503;SDS011;39387;50.998;22.340;2023-03-20T04:46:16;28.73;;;13.50;;
53503;SDS011;39387;50.998;22.340;2023-03-20T04:48:43;30.00;;;13.43;;
53503;SDS011;39387;50.998;22.340;2023-03-20T04:51:10;30.20;;;14.10;;
53503;SDS011;39387;50.998;22.340;2023-03-20T04:53:38;31.73;;;14.05;;
53503;SDS011;39387;50.998;22.340;2023-03-20T04:56:06;29.75;;;13.13;;
53503;SDS011;39387;50.998;22.340;2023-03-20T04:58:34;28.92;;;13.48;;
53503;SDS011;39387;50.998;22.340;2023-03-20T05:01:02;26.13;;;13.70;;
53503;SDS011;39387;50.998;22.340;2023-03-20T05:03:31;29.42;;;14.43;;
53503;SDS011;39387;50.998;22.340;2023-03-20T05:05:59;27.38;;;13.13;;
53503;SDS011;39387;50.998;22.340;2023-03-20T05:08:27;29.60;;;13.90;;
53503;SDS011;39387;50.998;22.340;2023-03-20T05:10:54;26.88;;;13.82;;
53503;SDS011;39387;50.998;22.340;2023-03-20T05:13:21;29.05;;;14.40;;
53503;SDS011;39387;50.998;22.340;2023-03-20T05:15:48;30.42;;;13.85;;
53503;SDS011;39387;50.998;22.340;2023-03-20T05:18:16;27.80;;;13.10;;
53503;SDS011;39387;50.998;22.340;2023-03-20T05:20:45;25.65;;;13.15;;
53503;SDS011;39387;50.998;22.340;2023-03-20T05:23:12;30.92;;;13.63;;
53503;SDS011;39387;50.998;22.340;2023-03-20T05:25:39;29.13;;;13.23;;
53503;SDS011;39387;50.998;22.340;2023-03-20T05:28:07;25.05;;;13.02;;
53503;SDS011;39387;50.998;22.340;2023-03-20T05:30:34;27.77;;;12.57;;
53503;SDS011;39387;50.998;22.340;2023-03-20T05:33:01;27.48;;;13.02;;
53503;SDS011;39387;50.998;22.340;2023-03-20T05:35:28;25.92;;;12.75;;
53503;SDS011;39387;50.998;22.340;2023-03-20T05:37:57;29.25;;;13.35;;
53503;SDS011;39387;50.998;22.340;2023-03-20T05:40:25;25.33;;;13.02;;
53503;SDS011;39387;50.998;22.340;2023-03-20T05:42:52;26.25;;;14.00;;
53503;SDS011;39387;50.998;22.340;2023-03-20T05:45:19;26.63;;;14.27;;
53503;SDS011;39387;50.998;22.340;2023-03-20T05:47:47;29.25;;;13.88;;
53503;SDS011;39387;50.998;22.340;2023-03-20T05:50:15;26.95;;;14.10;;
53503;SDS011;39387;50.998;22.340;2023-03-20T05:52:44;28.35;;;13.80;;
53503;SDS011;39387;50.998;22.340;2023-03-20T05:55:14;25.55;;;13.30;;
53503;SDS011;39387;50.998;22.340;2023-03-20T05:57:41;26.70;;;13.15;;
53503;SDS011;39387;50.998;22.340;2023-03-20T06:00:09;29.63;;;13.27;;
53503;SDS011;39387;50.998;22.340;2023-03-20T06:02:37;25.83;;;13.05;;
53503;SDS011;39387;50.998;22.340;2023-03-20T06:05:04;27.60;;;13.50;;
53503;SDS011;39387;50.998;22.340;2023-03-20T06:07:32;27.48;;;13.70;;
53503;SDS011;39387;50.998;22.340;2023-03-20T06:09:59;26.17;;;13.63;;
53503;SDS011;39387;50.998;22.340;2023-03-20T06:12:28;29.08;;;13.25;;
53503;SDS011;39387;50.998;22.340;2023-03-20T06:14:55;25.17;;;13.25;;
53503;SDS011;39387;50.998;22.340;2023-03-20T06:17:23;26.38;;;12.68;;
53503;SDS011;39387;50.998;22.340;2023-03-20T06:19:50;27.08;;;13.43;;
53503;SDS011;39387;50.998;22.340;2023-03-20T06:22:17;23.17;;;13.02;;
53503;SDS011;39387;50.998;22.340;2023-03-20T06:24:44;29.92;;;13.75;;
53503;SDS011;39387;50.998;22.340;2023-03-20T06:27:12;27.63;;;13.88;;
53503;SDS011;39387;50.998;22.340;2023-03-20T06:29:40;31.70;;;14.80;;
53503;SDS011;39387;50.998;22.340;2023-03-20T06:32:08;29.88;;;15.10;;
53503;SDS011;39387;50.998;22.340;2023-03-20T06:34:36;27.42;;;16.23;;
53503;SDS011;39387;50.998;22.340;2023-03-20T06:37:04;30.10;;;14.45;;
53503;SDS011;39387;50.998;22.340;2023-03-20T06:39:31;32.97;;;16.45;;
53503;SDS011;39387;50.998;22.340;2023-03-20T06:41:59;38.63;;;17.88;;
53503;SDS011;39387;50.998;22.340;2023-03-20T06:44:26;39.22;;;19.00;;
53503;SDS011;39387;50.998;22.340;2023-03-20T06:46:55;38.92;;;21.05;;
53503;SDS011;39387;50.998;22.340;2023-03-20T06:49:22;38.85;;;19.65;;
53503;SDS011;39387;50.998;22.340;2023-03-20T06:51:49;33.30;;;17.25;;
53503;SDS011;39387;50.998;22.340;2023-03-20T06:54:17;29.02;;;16.45;;
53503;SDS011;39387;50.998;22.340;2023-03-20T06:56:44;30.27;;;16.17;;
53503;SDS011;39387;50.998;22.340;2023-03-20T06:59:12;28.48;;;14.57;;
53503;SDS011;39387;50.998;22.340;2023-03-20T07:01:39;24.98;;;14.38;;
53503;SDS011;39387;50.998;22.340;2023-03-20T07:04:08;27.60;;;14.77;;
53503;SDS011;39387;50.998;22.340;2023-03-20T07:06:35;30.83;;;15.20;;
53503;SDS011;39387;50.998;22.340;2023-03-20T07:09:02;27.65;;;15.40;;
53503;SDS011;39387;50.998;22.340;2023-03-20T07:11:30;25.80;;;14.18;;
53503;SDS011;39387;50.998;22.340;2023-03-20T07:13:58;24.45;;;13.98;;
53503;SDS011;39387;50.998;22.340;2023-03-20T07:16:26;27.75;;;14.23;;
53503;SDS011;39387;50.998;22.340;2023-03-20T07:18:53;23.88;;;13.32;;
53503;SDS011;39387;50.998;22.340;2023-03-20T07:21:22;27.65;;;14.57;;
53503;SDS011;39387;50.998;22.340;2023-03-20T07:23:49;23.42;;;13.95;;
53503;SDS011;39387;50.998;22.340;2023-03-20T07:26:16;24.15;;;13.98;;
53503;SDS011;39387;50.998;22.340;2023-03-20T07:28:43;24.13;;;14.48;;
53503;SDS011;39387;50.998;22.340;2023-03-20T07:31:13;33.25;;;17.08;;
53503;SDS011;39387;50.998;22.340;2023-03-20T07:33:45;49.63;;;25.88;;
53503;SDS011;39387;50.998;22.340;2023-03-20T07:36:12;48.50;;;27.05;;
53503;SDS011;39387;50.998;22.340;2023-03-20T07:38:40;42.30;;;23.50;;
53503;SDS011;39387;50.998;22.340;2023-03-20T07:41:08;35.03;;;20.38;;
53503;SDS011;39387;50.998;22.340;2023-03-20T07:43:35;30.88;;;17.98;;
53503;SDS011;39387;50.998;22.340;2023-03-20T07:46:03;26.75;;;16.90;;
53503;SDS011;39387;50.998;22.340;2023-03-20T07:48:31;27.38;;;16.13;;
53503;SDS011;39387;50.998;22.340;2023-03-20T07:50:58;25.38;;;14.77;;
53503;SDS011;39387;50.998;22.340;2023-03-20T07:53:25;26.45;;;15.45;;
53503;SDS011;39387;50.998;22.340;2023-03-20T07:55:54;26.27;;;14.68;;
53503;SDS011;39387;50.998;22.340;2023-03-20T07:58:21;25.85;;;15.68;;
53503;SDS011;39387;50.998;22.340;2023-03-20T08:00:49;26.70;;;16.75;;
53503;SDS011;39387;50.998;22.340;2023-03-20T08:03:16;23.65;;;15.10;;
53503;SDS011;39387;50.998;22.340;2023-03-20T08:05:43;25.77;;;15.30;;
53503;SDS011;39387;50.998;22.340;2023-03-20T08:08:10;27.58;;;15.27;;
53503;SDS011;39387;50.998;22.340;2023-03-20T08:10:38;33.97;;;19.17;;
53503;SDS011;39387;50.998;22.340;2023-03-20T08:13:06;38.28;;;20.70;;
53503;SDS011;39387;50.998;22.340;2023-03-20T08:15:34;40.20;;;21.77;;
53503;SDS011;39387;50.998;22.340;2023-03-20T08:18:01;33.95;;;20.75;;
53503;SDS011;39387;50.998;22.340;2023-03-20T08:20:28;32.30;;;18.02;;
53503;SDS011;39387;50.998;22.340;2023-03-20T08:22:56;29.98;;;18.52;;
53503;SDS011;39387;50.998;22.340;2023-03-20T08:25:23;26.17;;;14.95;;
53503;SDS011;39387;50.998;22.340;2023-03-20T08:27:50;24.85;;;14.30;;
53503;SDS011;39387;50.998;22.340;2023-03-20T08:30:19;21.27;;;13.75;;
53503;SDS011;39387;50.998;22.340;2023-03-20T08:32:46;21.25;;;12.68;;
53503;SDS011;39387;50.998;22.340;2023-03-20T08:35:14;20.65;;;12.70;;
53503;SDS011;39387;50.998;22.340;2023-03-20T08:37:41;21.02;;;13.15;;
53503;SDS011;39387;50.998;22.340;2023-03-20T08:40:09;20.95;;;12.18;;
53503;SDS011;39387;50.998;22.340;2023-03-20T08:42:37;22.90;;;13.55;;
53503;SDS011;39387;50.998;22.340;2023-03-20T08:45:05;21.50;;;13.52;;
53503;SDS011;39387;50.998;22.340;2023-03-20T08:47:35;22.13;;;12.90;;
53503;SDS011;39387;50.998;22.340;2023-03-20T08:50:02;21.73;;;14.05;;
53503;SDS011;39387;50.998;22.340;2023-03-20T08:52:30;20.92;;;12.80;;
53503;SDS011;39387;50.998;22.340;2023-03-20T08:54:57;19.60;;;12.13;;
53503;SDS011;39387;50.998;22.340;2023-03-20T08:57:24;18.30;;;11.52;;
53503;SDS011;39387;50.998;22.340;2023-03-20T08:59:52;18.90;;;11.43;;
53503;SDS011;39387;50.998;22.340;2023-03-20T09:02:19;17.88;;;11.13;;
53503;SDS011;39387;50.998;22.340;2023-03-20T09:04:48;18.77;;;11.68;;
53503;SDS011;39387;50.998;22.340;2023-03-20T09:07:15;22.33;;;12.82;;
53503;SDS011;39387;50.998;22.340;2023-03-20T09:09:43;22.50;;;13.45;;
53503;SDS011;39387;50.998;22.340;2023-03-20T09:12:10;25.02;;;13.93;;
53503;SDS011;39387;50.998;22.340;2023-03-20T09:14:37;24.92;;;14.25;;
53503;SDS011;39387;50.998;22.340;2023-03-20T09:17:05;23.02;;;13.57;;
53503;SDS011;39387;50.998;22.340;2023-03-20T09:19:32;23.23;;;13.88;;
53503;SDS011;39387;50.998;22.340;2023-03-20T09:22:22;21.67;;;13.93;;
53503;SDS011;39387;50.998;22.340;2023-03-20T09:24:49;22.77;;;14.00;;
53503;SDS011;39387;50.998;22.340;2023-03-20T09:27:16;23.42;;;13.75;;
53503;SDS011;39387;50.998;22.340;2023-03-20T09:29:44;23.98;;;14.55;;
53503;SDS011;39387;50.998;22.340;2023-03-20T09:32:11;25.95;;;14.77;;
53503;SDS011;39387;50.998;22.340;2023-03-20T09:34:39;23.98;;;14.80;;
53503;SDS011;39387;50.998;22.340;2023-03-20T09:37:06;30.27;;;16.58;;
53503;SDS011;39387;50.998;22.340;2023-03-20T09:39:35;27.52;;;15.60;;
53503;SDS011;39387;50.998;22.340;2023-03-20T09:42:06;28.27;;;16.10;;
53503;SDS011;39387;50.998;22.340;2023-03-20T09:44:43;28.58;;;16.00;;
53503;SDS011;39387;50.998;22.340;2023-03-20T09:47:16;28.30;;;16.50;;
53503;SDS011;39387;50.998;22.340;2023-03-20T09:49:47;25.27;;;15.73;;
53503;SDS011;39387;50.998;22.340;2023-03-20T09:52:23;28.05;;;15.95;;
53503;SDS011;39387;50.998;22.340;2023-03-20T09:54:55;28.00;;;16.42;;
53503;SDS011;39387;50.998;22.340;2023-03-20T09:59:52;24.83;;;16.48;;
53503;SDS011;39387;50.998;22.340;2023-03-20T10:02:22;25.88;;;15.98;;
53503;SDS011;39387;50.998;22.340;2023-03-20T10:04:56;25.60;;;15.60;;
53503;SDS011;39387;50.998;22.340;2023-03-20T10:07:23;30.70;;;16.95;;
53503;SDS011;39387;50.998;22.340;2023-03-20T10:09:51;24.20;;;16.25;;
53503;SDS011;39387;50.998;22.340;2023-03-20T10:12:25;25.58;;;16.15;;
53503;SDS011;39387;50.998;22.340;2023-03-20T10:15:00;25.60;;;16.45;;
53503;SDS011;39387;50.998;22.340;2023-03-20T10:17:33;26.35;;;16.35;;
53503;SDS011;39387;50.998;22.340;2023-03-20T10:20:10;26.88;;;17.08;;
53503;SDS011;39387;50.998;22.340;2023-03-20T10:22:40;28.05;;;16.88;;
53503;SDS011;39387;50.998;22.340;2023-03-20T10:25:15;29.77;;;17.38;;
53503;SDS011;39387;50.998;22.340;2023-03-20T10:27:50;27.38;;;16.70;;
53503;SDS011;39387;50.998;22.340;2023-03-20T10:30:25;24.63;;;15.68;;
53503;SDS011;39387;50.998;22.340;2023-03-20T10:32:59;26.73;;;15.77;;
53503;SDS011;39387;50.998;22.340;2023-03-20T10:35:36;24.75;;;16.05;;
53503;SDS011;39387;50.998;22.340;2023-03-20T10:38:09;25.20;;;16.17;;
53503;SDS011;39387;50.998;22.340;2023-03-20T10:40:50;27.83;;;16.33;;
53503;SDS011;39387;50.998;22.340;2023-03-20T10:43:20;27.83;;;16.10;;
53503;SDS011;39387;50.998;22.340;2023-03-20T10:45:50;26.33;;;16.52;;
53503;SDS011;39387;50.998;22.340;2023-03-20T10:48:20;26.10;;;16.27;;
53503;SDS011;39387;50.998;22.340;2023-03-20T10:50:52;26.92;;;16.42;;
53503;SDS011;39387;50.998;22.340;2023-03-20T10:53:29;22.50;;;14.87;;
53503;SDS011;39387;50.998;22.340;2023-03-20T10:55:58;24.30;;;13.98;;
53503;SDS011;39387;50.998;22.340;2023-03-20T10:58:30;24.33;;;15.38;;
53503;SDS011;39387;50.998;22.340;2023-03-20T11:03:26;21.63;;;13.85;;
53503;SDS011;39387;50.998;22.340;2023-03-20T11:05:58;28.70;;;15.60;;
53503;SDS011;39387;50.998;22.340;2023-03-20T11:08:29;24.80;;;15.27;;
53503;SDS011;39387;50.998;22.340;2023-03-20T11:11:00;23.33;;;14.95;;
53503;SDS011;39387;50.998;22.340;2023-03-20T11:13:31;24.23;;;14.65;;
53503;SDS011;39387;50.998;22.340;2023-03-20T11:16:11;24.58;;;14.07;;
53503;SDS011;39387;50.998;22.340;2023-03-20T11:18:44;21.27;;;14.40;;
53503;SDS011;39387;50.998;22.340;2023-03-20T11:21:14;22.97;;;13.50;;
53503;SDS011;39387;50.998;22.340;2023-03-20T11:23:44;23.60;;;13.85;;
53503;SDS011;39387;50.998;22.340;2023-03-20T11:26:12;21.77;;;13.48;;
53503;SDS011;39387;50.998;22.340;2023-03-20T11:28:45;24.30;;;14.02;;
53503;SDS011;39387;50.998;22.340;2023-03-20T11:31:16;28.40;;;17.02;;
53503;SDS011;39387;50.998;22.340;2023-03-20T11:33:45;28.65;;;16.58;;
53503;SDS011;39387;50.998;22.340;2023-03-20T11:36:19;28.25;;;16.95;;
53503;SDS011;39387;50.998;22.340;2023-03-20T11:38:48;25.70;;;16.25;;
53503;SDS011;39387;50.998;22.340;2023-03-20T11:41:17;28.02;;;18.02;;
53503;SDS011;39387;50.998;22.340;2023-03-20T11:43:48;28.77;;;17.77;;
53503;SDS011;39387;50.998;22.340;2023-03-20T11:46:15;34.58;;;18.40;;
53503;SDS011;39387;50.998;22.340;2023-03-20T11:48:43;32.95;;;18.88;;
53503;SDS011;39387;50.998;22.340;2023-03-20T11:51:12;31.25;;;18.48;;
53503;SDS011;39387;50.998;22.340;2023-03-20T11:53:41;27.38;;;16.15;;
53503;SDS011;39387;50.998;22.340;2023-03-20T11:56:25;26.08;;;15.93;;
53503;SDS011;39387;50.998;22.340;2023-03-20T11:58:56;27.50;;;16.83;;
53503;SDS011;39387;50.998;22.340;2023-03-20T12:01:24;28.70;;;16.65;;
53503;SDS011;39387;50.998;22.340;2023-03-20T12:03:57;29.38;;;17.17;;
53503;SDS011;39387;50.998;22.340;2023-03-20T12:06:35;28.77;;;17.63;;
53503;SDS011;39387;50.998;22.340;2023-03-20T12:09:06;29.48;;;16.65;;
53503;SDS011;39387;50.998;22.340;2023-03-20T12:11:41;27.02;;;16.15;;
53503;SDS011;39387;50.998;22.340;2023-03-20T12:14:16;32.33;;;17.90;;
53503;SDS011;39387;50.998;22.340;2023-03-20T12:16:48;31.13;;;18.33;;
53503;SDS011;39387;50.998;22.340;2023-03-20T12:19:19;31.27;;;18.48;;
53503;SDS011;39387;50.998;22.340;2023-03-20T12:21:51;29.30;;;18.75;;
53503;SDS011;39387;50.998;22.340;2023-03-20T12:24:25;29.90;;;18.42;;
53503;SDS011;39387;50.998;22.340;2023-03-20T12:26:57;36.88;;;19.45;;
53503;SDS011;39387;50.998;22.340;2023-03-20T12:29:31;34.53;;;18.75;;
53503;SDS011;39387;50.998;22.340;2023-03-20T12:32:04;32.50;;;18.92;;
53503;SDS011;39387;50.998;22.340;2023-03-20T12:34:34;30.13;;;17.83;;
53503;SDS011;39387;50.998;22.340;2023-03-20T12:37:03;32.70;;;17.90;;
53503;SDS011;39387;50.998;22.340;2023-03-20T12:39:32;31.33;;;18.00;;
53503;SDS011;39387;50.998;22.340;2023-03-20T12:42:06;31.85;;;17.80;;
53503;SDS011;39387;50.998;22.340;2023-03-20T12:44:37;29.33;;;16.98;;
53503;SDS011;39387;50.998;22.340;2023-03-20T12:47:12;28.63;;;17.10;;
53503;SDS011;39387;50.998;22.340;2023-03-20T12:49:47;30.15;;;16.65;;
53503;SDS011;39387;50.998;22.340;2023-03-20T12:52:21;32.72;;;17.02;;
53503;SDS011;39387;50.998;22.340;2023-03-20T12:57:46;27.08;;;14.88;;
53503;SDS011;39387;50.998;22.340;2023-03-20T13:00:21;25.88;;;15.57;;
53503;SDS011;39387;50.998;22.340;2023-03-20T13:02:56;26.95;;;15.98;;
53503;SDS011;39387;50.998;22.340;2023-03-20T13:05:40;29.98;;;17.15;;
53503;SDS011;39387;50.998;22.340;2023-03-20T13:08:13;28.67;;;16.85;;
53503;SDS011;39387;50.998;22.340;2023-03-20T13:10:48;28.45;;;16.40;;
53503;SDS011;39387;50.998;22.340;2023-03-20T13:13:22;26.17;;;17.40;;
53503;SDS011;39387;50.998;22.340;2023-03-20T13:15:59;27.02;;;16.50;;
53503;SDS011;39387;50.998;22.340;2023-03-20T13:18:38;24.85;;;16.17;;
53503;SDS011;39387;50.998;22.340;2023-03-20T13:21:12;25.30;;;15.07;;
53503;SDS011;39387;50.998;22.340;2023-03-20T13:23:44;28.10;;;16.65;;
53503;SDS011;39387;50.998;22.340;2023-03-20T13:26:17;28.85;;;15.85;;
53503;SDS011;39387;50.998;22.340;2023-03-20T13:28:51;28.92;;;17.10;;
53503;SDS011;39387;50.998;22.340;2023-03-20T13:31:29;30.42;;;17.00;;
53503;SDS011;39387;50.998;22.340;2023-03-20T13:34:05;29.85;;;17.38;;
53503;SDS011;39387;50.998;22.340;2023-03-20T13:36:42;26.73;;;16.55;;
53503;SDS011;39387;50.998;22.340;2023-03-20T13:39:20;32.05;;;18.63;;
53503;SDS011;39387;50.998;22.340;2023-03-20T13:44:18;30.40;;;17.02;;
53503;SDS011;39387;50.998;22.340;2023-03-20T13:46:49;27.45;;;16.92;;
53503;SDS011;39387;50.998;22.340;2023-03-20T13:49:19;25.27;;;15.77;;
53503;SDS011;39387;50.998;22.340;2023-03-20T13:51:52;26.25;;;15.85;;
53503;SDS011;39387;50.998;22.340;2023-03-20T13:54:27;26.13;;;16.30;;
53503;SDS011;39387;50.998;22.340;2023-03-20T13:57:04;29.00;;;14.90;;
53503;SDS011;39387;50.998;22.340;2023-03-20T14:02:32;26.23;;;14.50;;
53503;SDS011;39387;50.998;22.340;2023-03-20T14:05:03;25.13;;;14.07;;
53503;SDS011;39387;50.998;22.340;2023-03-20T14:07:33;26.00;;;15.77;;
53503;SDS011;39387;50.998;22.340;2023-03-20T14:13:03;25.92;;;15.25;;
53503;SDS011;39387;50.998;22.340;2023-03-20T14:15:33;23.83;;;14.57;;
53503;SDS011;39387;50.998;22.340;2023-03-20T14:18:10;26.42;;;15.05;;
53503;SDS011;39387;50.998;22.340;2023-03-20T14:20:40;22.33;;;13.98;;
53503;SDS011;39387;50.998;22.340;2023-03-20T14:23:14;25.10;;;15.18;;
53503;SDS011;39387;50.998;22.340;2023-03-20T14:25:45;25.63;;;15.07;;
53503;SDS011;39387;50.998;22.340;2023-03-20T14:28:24;26.45;;;16.10;;
53503;SDS011;39387;50.998;22.340;2023-03-20T14:33:43;28.85;;;16.23;;
53503;SDS011;39387;50.998;22.340;2023-03-20T14:36:15;27.25;;;16.50;;
53503;SDS011;39387;50.998;22.340;2023-03-20T14:38:48;24.20;;;14.70;;
53503;SDS011;39387;50.998;22.340;2023-03-20T14:41:22;23.55;;;13.88;;
53503;SDS011;39387;50.998;22.340;2023-03-20T14:43:58;21.92;;;14.18;;
53503;SDS011;39387;50.998;22.340;2023-03-20T14:46:38;22.77;;;14.10;;
53503;SDS011;39387;50.998;22.340;2023-03-20T14:49:22;20.40;;;13.75;;
53503;SDS011;39387;50.998;22.340;2023-03-20T14:51:53;25.45;;;14.30;;
53503;SDS011;39387;50.998;22.340;2023-03-20T14:54:27;23.63;;;13.85;;
53503;SDS011;39387;50.998;22.340;2023-03-20T14:57:06;24.30;;;14.95;;
53503;SDS011;39387;50.998;22.340;2023-03-20T14:59:34;24.17;;;14.30;;
53503;SDS011;39387;50.998;22.340;2023-03-20T15:02:03;24.30;;;13.82;;
53503;SDS011;39387;50.998;22.340;2023-03-20T15:04:33;22.38;;;13.50;;